Scroggins, Texas
Current Conditions -  °F | °C
As of 8:15 AM on Sunday 21 Dec 2014 (Local Time) from KOSA Reporting Station
Overcast Overcast  
Wind Chill: 44°   Ceiling: 4000
Heat Index: 44°   Visibility: 3mi
Dew Point: 42°   Wind: 0mph
Humidity: 95%   Direction: NA
Pressure: 30.16"   Gusts: NA
Location:  33.07°N, 95.2°W
Report Text: KOSA 211415Z AUTO 00000KT 3SM OVC040 07/06 A3016 RMK AO1 T00650057
Loading
Personal Weather Stations






























Interactive Weather Map New forecast layout! Learn more

10-Day Weather Forecast

Advertisements
Track Severe Weather on mobile